Milton, Canada
Current Conditions -  °F | °C
As of 7:00 AM on Friday 31 Oct 2014 (Local Time) from CYYZ Reporting Station
Light Rain Light Rain  
Wind Chill: 39°   Ceiling: 3000
Heat Index: 43°   Visibility: 10mi
Dew Point: 39°   Wind: 6mph
Humidity: 87%   Direction: 120°ESE
Pressure: 29.95"   Gusts: NA
Location:  43.51°N, 79.88°W
Report Text: CYYZ 311100Z 12005KT 10SM -RA OVC030 06/04 A2995 RMK SC8 SLP146
Loading
Personal Weather Stations






























Interactive Weather Map
Tropical Storm Tracking
New forecast layout! Learn more

10-Day Weather Forecast

Advertisements
Track Severe Weather on mobile